Time;durP1;ratioP1;P1;durP2;ratioP2;P2;SDS_P1;SDS_P2;PMS_P1;PMS_P2;Temp;Humidity;BMP_temperature;BMP_pressure;BME280_temperature;BME280_humidity;BME280_pressure;Samples;Min_cycle;Max_cycle;Signal;HPM_P1;HPM_P2
2023/01/12 00:09:09;;;;;;;8.70;2.30;;;;;;;7.50;100.00;100635.56;20700312;28;20061;-73
2023/01/12 00:19:11;;;;;;;13.32;2.47;;;;;;;7.47;100.00;100628.59;20689919;28;20101;-72
2023/01/12 00:29:12;;;;;;;14.02;2.05;;;;;;;7.48;100.00;100617.34;20697886;28;20507;-71
2023/01/12 00:39:13;;;;;;;13.60;1.90;;;;;;;7.61;100.00;100603.41;20686983;28;20046;-72
2023/01/12 00:49:15;;;;;;;10.18;1.80;;;;;;;7.66;100.00;100599.06;20686665;28;20058;-74
2023/01/12 00:59:16;;;;;;;15.55;2.05;;;;;;;7.76;100.00;100573.88;20685762;28;20057;-74
2023/01/12 01:09:17;;;;;;;8.80;2.00;;;;;;;7.76;100.00;100594.75;20680797;28;20054;-74
2023/01/12 01:19:19;;;;;;;10.48;1.48;;;;;;;7.89;100.00;100599.03;20684617;28;20104;-77
2023/01/12 01:29:20;;;;;;;10.65;2.00;;;;;;;7.96;100.00;100608.59;20679225;28;20110;-72
2023/01/12 01:39:21;;;;;;;10.73;1.83;;;;;;;7.98;100.00;100611.19;20687683;28;20053;-73
2023/01/12 01:49:23;;;;;;;11.88;1.83;;;;;;;7.99;100.00;100612.94;20677160;28;20534;-72
2023/01/12 01:59:24;;;;;;;9.10;1.88;;;;;;;8.07;100.00;100620.75;20688062;28;20433;-72
2023/01/12 02:09:25;;;;;;;11.63;1.95;;;;;;;8.06;100.00;100595.56;20674946;28;20108;-72
2023/01/12 02:19:26;;;;;;;10.13;2.25;;;;;;;8.04;100.00;100560.78;20686075;28;20113;-72
2023/01/12 02:29:28;;;;;;;10.82;1.95;;;;;;;7.92;100.00;100554.72;20678121;28;20498;-72
2023/01/12 02:39:29;;;;;;;9.27;1.95;;;;;;;7.96;100.00;100548.63;20681741;28;20687;-72
2023/01/12 02:49:30;;;;;;;20.50;2.47;;;;;;;7.93;100.00;100551.25;20680134;28;20058;-73
2023/01/12 02:59:32;;;;;;;10.90;2.20;;;;;;;8.08;100.00;100534.69;20682912;28;20447;-71
2023/01/12 03:09:33;;;;;;;11.48;2.15;;;;;;;8.06;100.00;100526.00;20697646;28;20152;-72
2023/01/12 03:19:34;;;;;;;12.80;2.35;;;;;;;8.10;100.00;100547.75;20694811;28;20054;-72
2023/01/12 03:29:35;;;;;;;21.38;2.53;;;;;;;8.16;100.00;100532.06;20697070;28;20065;-72
2023/01/12 03:39:37;;;;;;;12.88;2.38;;;;;;;8.14;100.00;100521.63;20687162;28;20364;-73
2023/01/12 03:49:38;;;;;;;15.15;2.08;;;;;;;8.17;100.00;100525.97;20693301;28;20320;-72
2023/01/12 03:59:39;;;;;;;16.38;2.75;;;;;;;8.28;100.00;100510.25;20643181;23;20109;-70
2023/01/12 04:09:41;;;;;;;7.72;1.42;;;;;;;8.21;100.00;100525.09;20649730;28;20054;-69
2023/01/12 04:19:42;;;;;;;10.95;2.20;;;;;;;8.18;100.00;100527.69;20650833;28;20054;-68
2023/01/12 04:29:43;;;;;;;11.35;2.90;;;;;;;8.31;100.00;100510.25;20650712;28;20050;-68
2023/01/12 04:39:44;;;;;;;11.45;1.90;;;;;;;8.23;100.00;100513.75;20649153;28;20057;-69
2023/01/12 04:49:46;;;;;;;13.15;2.75;;;;;;;8.26;100.00;100506.81;20648645;28;20050;-69
2023/01/12 04:59:47;;;;;;;14.25;2.35;;;;;;;8.18;100.00;100509.44;20648192;28;20467;-70
2023/01/12 05:10:31;;;;;;;14.70;2.45;;;;;;;8.02;100.00;100502.56;20646812;28;20050;-70
2023/01/12 05:20:13;;;;;;;12.63;2.40;;;;;;;8.01;100.00;100491.25;20637028;28;20050;-68
2023/01/12 05:30:14;;;;;;;15.82;2.97;;;;;;;7.96;100.00;100469.56;20646136;28;20054;-69
2023/01/12 05:40:15;;;;;;;15.88;1.98;;;;;;;7.97;100.00;100438.25;20645051;28;20062;-68
2023/01/12 05:50:17;;;;;;;13.15;2.13;;;;;;;8.00;100.00;100415.63;20644920;28;20054;-69
2023/01/12 06:00:18;;;;;;;15.43;2.63;;;;;;;8.10;100.00;100417.34;20647437;28;20090;-69
2023/01/12 06:10:19;;;;;;;12.18;2.67;;;;;;;8.06;100.00;100395.63;20644372;28;20066;-69
2023/01/12 06:20:20;;;;;;;14.07;2.15;;;;;;;8.17;100.00;100395.56;20640929;28;20414;-70
2023/01/12 06:30:22;;;;;;;12.68;2.20;;;;;;;8.14;100.00;100385.13;20711163;23;20217;-83
2023/01/12 06:40:23;;;;;;;15.98;2.20;;;;;;;8.12;100.00;100392.13;20743213;28;20061;-82
2023/01/12 06:50:24;;;;;;;15.50;2.15;;;;;;;8.15;100.00;100389.50;20735098;28;20057;-83
2023/01/12 07:00:26;;;;;;;14.50;2.47;;;;;;;8.21;100.00;100369.44;20748675;28;20414;-83
2023/01/12 07:10:27;;;;;;;8.70;1.80;;;;;;;8.27;100.00;100381.59;20738094;28;20144;-83
2023/01/12 07:20:28;;;;;;;11.88;2.20;;;;;;;8.27;100.00;100378.97;20732197;28;20050;-82
2023/01/12 07:30:29;;;;;;;8.23;1.67;;;;;;;8.36;100.00;100363.28;20820153;28;20489;-84
2023/01/12 07:40:31;;;;;;;9.25;1.75;;;;;;;8.38;100.00;100369.34;20822903;28;20056;-83
2023/01/12 07:50:32;;;;;;;11.27;1.67;;;;;;;8.33;100.00;100389.34;20817002;28;20049;-81
2023/01/12 08:00:33;;;;;;;11.70;1.60;;;;;;;8.33;100.00;100389.34;20823374;28;20046;-78
2023/01/12 08:10:35;;;;;;;12.35;1.90;;;;;;;8.41;100.00;100371.94;20826495;28;20514;-80
2023/01/12 08:20:36;;;;;;;6.80;1.80;;;;;;;8.53;100.00;100377.94;20814319;28;20060;-80
2023/01/12 08:30:37;;;;;;;11.30;1.67;;;;;;;8.63;100.00;100387.47;20834160;28;20111;-82
2023/01/12 08:50:59;;;;;;;12.77;1.98;;;;;;;8.67;100.00;100392.66;20826083;28;20053;-83
2023/01/12 09:01:00;;;;;;;13.75;2.38;;;;;;;8.79;100.00;100401.25;20810958;28;20057;-82
2023/01/12 09:11:02;;;;;;;15.85;2.00;;;;;;;8.78;100.00;100407.34;20806344;28;20058;-81
2023/01/12 09:21:03;;;;;;;13.75;2.03;;;;;;;8.91;100.00;100393.28;20826980;28;20417;-82
2023/01/12 09:31:04;;;;;;;8.30;1.58;;;;;;;9.03;100.00;100371.44;20802417;28;20050;-82
2023/01/12 09:41:05;;;;;;;7.10;1.60;;;;;;;8.97;100.00;100375.84;20727328;28;20448;-80
2023/01/12 09:51:07;;;;;;;11.05;1.98;;;;;;;8.95;100.00;100374.97;20836186;23;20084;-76
2023/01/12 10:01:08;;;;;;;10.50;1.83;;;;;;;9.09;100.00;100356.56;20851021;28;20120;-77
2023/01/12 10:11:17;;;;;;;9.43;1.70;;;;;;;9.05;100.00;100369.66;20849861;28;20087;-74
2023/01/12 10:21:18;;;;;;;8.95;1.60;;;;;;;9.08;100.00;100385.31;20860577;28;20692;-75
2023/01/12 10:31:20;;;;;;;9.75;1.67;;;;;;;9.20;100.00;100370.38;20869355;28;20060;-77
2023/01/12 10:41:21;;;;;;;6.90;1.73;;;;;;;9.17;100.00;100349.50;20852154;28;20057;-78
2023/01/12 10:51:22;;;;;;;8.30;1.80;;;;;;;9.28;100.00;100348.53;20874418;28;20110;-77
2023/01/12 11:01:24;;;;;;;8.32;1.95;;;;;;;9.21;100.00;100355.56;20864788;28;20150;-80
2023/01/12 11:11:25;;;;;;;7.82;1.40;;;;;;;9.17;100.00;100361.72;20863454;28;20447;-77
2023/01/12 11:21:26;;;;;;;8.63;1.58;;;;;;;9.16;100.00;100365.22;20877291;28;20107;-80
2023/01/12 11:31:28;;;;;;;9.55;1.40;;;;;;;9.35;100.00;100366.75;20865463;28;20053;-80
2023/01/12 11:41:29;;;;;;;5.25;0.85;;;;;;;9.17;100.00;100359.09;20881247;28;20083;-78
2023/01/12 11:51:31;;;;;;;6.80;1.55;;;;;;;9.02;100.00;100317.47;20869568;28;20438;-79
2023/01/12 12:01:33;;;;;;;9.05;1.30;;;;;;;8.90;100.00;100316.69;20867466;28;20049;-77
2023/01/12 12:11:34;;;;;;;6.90;1.45;;;;;;;8.90;100.00;100314.09;20858015;28;20460;-78
2023/01/12 12:21:36;;;;;;;5.50;1.25;;;;;;;9.14;100.00;100276.38;20852547;28;20417;-80
2023/01/12 12:31:37;;;;;;;4.95;0.93;;;;;;;9.12;100.00;100272.09;20852386;28;20053;-82
2023/01/12 12:51:58;;;;;;;3.60;0.90;;;;;;;9.31;100.00;100242.22;20842457;28;20045;-75
2023/01/12 13:02:00;;;;;;;7.28;1.33;;;;;;;9.31;100.00;100247.47;20855390;28;20057;-75
2023/01/12 13:12:01;;;;;;;8.23;1.42;;;;;;;9.48;100.00;100240.25;20841941;28;20132;-77
2023/01/12 13:22:02;;;;;;;8.73;1.00;;;;;;;9.40;100.00;100241.25;20863563;28;20119;-82
2023/01/12 13:32:04;;;;;;;6.72;1.23;;;;;;;9.39;100.00;100240.41;20863522;28;20502;-79
2023/01/12 13:52:25;;;;;;;7.72;1.60;;;;;;;9.10;100.00;100263.38;20865519;28;20053;-80
2023/01/12 14:02:27;;;;;;;7.22;1.70;;;;;;;9.06;100.00;100246.06;20876316;28;20103;-82
2023/01/12 14:12:28;;;;;;;6.28;1.60;;;;;;;9.02;100.00;100231.28;20859608;28;20106;-78
2023/01/12 14:22:29;;;;;;;6.85;2.28;;;;;;;9.24;100.00;100230.13;20846716;28;20116;-80
2023/01/12 14:32:30;;;;;;;7.32;1.50;;;;;;;9.33;100.00;100232.63;20854682;28;20092;-79
2023/01/12 14:52:52;;;;;;;4.15;1.20;;;;;;;9.55;100.00;100229.72;20849584;28;20057;-78
2023/01/12 15:02:53;;;;;;;5.95;1.30;;;;;;;9.57;100.00;100217.47;20862086;28;20308;-77
2023/01/12 15:12:55;;;;;;;4.78;1.10;;;;;;;9.55;100.00;100220.13;20872380;28;20056;-76
2023/01/12 15:33:17;;;;;;;3.20;0.80;;;;;;;9.58;100.00;100209.63;20856045;28;20433;-77
2023/01/12 15:43:18;;;;;;;4.70;1.05;;;;;;;9.54;100.00;100201.88;20859751;28;20175;-78
2023/01/12 15:53:19;;;;;;;5.20;1.10;;;;;;;9.51;100.00;100203.63;20861040;28;20048;-78
2023/01/12 16:03:20;;;;;;;6.03;2.10;;;;;;;9.44;100.00;100212.44;20859992;28;20091;-77
2023/01/12 16:13:42;;;;;;;5.93;1.00;;;;;;;9.50;100.00;100217.56;20856760;28;20045;-78
2023/01/12 16:23:45;;;;;;;5.85;1.60;;;;;;;9.39;100.00;100209.03;20862481;28;20056;-78
2023/01/12 16:33:46;;;;;;;9.55;1.95;;;;;;;9.39;100.00;100200.31;20854205;28;20053;-77
2023/01/12 16:43:48;;;;;;;7.03;1.40;;;;;;;9.46;100.00;100189.75;20857609;28;20049;-76
2023/01/12 16:53:50;;;;;;;9.70;2.30;;;;;;;9.33;100.00;100177.75;20867828;28;20071;-78
2023/01/12 17:03:56;;;;;;;6.05;2.05;;;;;;;9.21;100.00;100164.88;20872019;28;20058;-77
2023/01/12 17:13:58;;;;;;;8.85;1.52;;;;;;;9.23;100.00;100150.03;20855060;28;20045;-78
2023/01/12 17:23:59;;;;;;;9.10;2.00;;;;;;;9.29;100.00;100154.28;20848052;28;20170;-79
2023/01/12 17:34:00;;;;;;;7.55;1.30;;;;;;;9.28;100.00;100143.00;20872793;28;20065;-79
2023/01/12 17:44:02;;;;;;;4.65;1.40;;;;;;;9.31;100.00;100145.56;20838023;28;20385;-77
2023/01/12 17:54:03;;;;;;;5.00;1.40;;;;;;;9.16;100.00;100140.56;20856000;28;20045;-78
2023/01/12 18:04:04;;;;;;;4.85;1.27;;;;;;;9.25;100.00;100130.84;20852985;28;20417;-78
2023/01/12 18:14:05;;;;;;;4.53;1.00;;;;;;;9.18;100.00;100125.72;20853920;28;20107;-78
2023/01/12 18:24:07;;;;;;;4.55;1.30;;;;;;;9.23;100.00;100122.16;20848764;28;20472;-79
2023/01/12 18:34:08;;;;;;;3.40;1.17;;;;;;;9.33;100.00;100125.50;20855115;28;20857;-77
2023/01/12 18:44:09;;;;;;;4.93;1.60;;;;;;;9.38;100.00;100108.00;20851761;28;20457;-77
2023/01/12 18:54:11;;;;;;;7.07;1.30;;;;;;;9.33;100.00;100094.13;20855874;28;20083;-76
2023/01/12 19:04:14;;;;;;;4.00;1.67;;;;;;;9.30;100.00;100112.50;20852050;28;20045;-77
2023/01/12 19:34:55;;;;;;;4.63;1.33;;;;;;;9.16;100.00;100117.06;20876784;28;20068;-80
2023/01/12 19:45:10;;;;;;;4.07;1.30;;;;;;;9.21;100.00;100116.09;20877700;28;20053;-79
2023/01/12 19:55:11;;;;;;;3.80;1.27;;;;;;;9.26;100.00;100116.03;20861943;28;20589;-78
2023/01/12 20:05:20;;;;;;;4.72;1.90;;;;;;;9.11;100.00;100113.66;20860980;28;20095;-80
2023/01/12 20:15:22;;;;;;;4.07;1.30;;;;;;;9.09;100.00;100105.81;20884970;28;20045;-80
2023/01/12 20:25:23;;;;;;;5.38;1.48;;;;;;;9.05;100.00;100092.81;20881539;28;20041;-80
2023/01/12 20:35:27;;;;;;;5.33;1.30;;;;;;;9.03;100.00;100084.16;20882080;28;20118;-82
2023/01/12 20:45:28;;;;;;;5.38;1.80;;;;;;;9.02;100.00;100072.00;20872294;28;20053;-80
2023/01/12 20:55:30;;;;;;;5.35;1.35;;;;;;;8.83;100.00;100067.03;20874694;28;20066;-83
2023/01/12 21:05:33;;;;;;;6.60;1.90;;;;;;;9.03;100.00;100052.81;20851170;23;20518;-80
2023/01/12 21:15:35;;;;;;;6.72;1.63;;;;;;;9.02;100.00;100036.28;20827682;28;20056;-81
2023/01/12 21:25:36;;;;;;;6.50;1.60;;;;;;;9.25;100.00;100033.34;20807601;28;20053;-80
2023/01/12 21:35:37;;;;;;;5.95;1.75;;;;;;;9.42;100.00;100027.81;20816402;28;20056;-80
2023/01/12 21:45:39;;;;;;;4.53;1.15;;;;;;;9.50;100.00;100024.19;20802218;28;20056;-79
2023/01/12 21:55:40;;;;;;;5.32;1.27;;;;;;;9.62;100.00;100011.78;20817384;28;20053;-79
2023/01/12 22:05:43;;;;;;;4.20;0.98;;;;;;;9.64;100.00;99987.34;20811520;28;20046;-82
2023/01/12 22:15:49;;;;;;;4.13;1.13;;;;;;;9.60;100.00;99984.81;20804973;28;20413;-80
2023/01/12 22:25:51;;;;;;;5.32;1.20;;;;;;;9.83;100.00;99987.88;20804149;28;20052;-80
2023/01/12 22:35:52;;;;;;;4.63;1.10;;;;;;;9.80;100.00;99985.28;20810944;28;20489;-80
2023/01/12 22:45:56;;;;;;;5.90;1.08;;;;;;;9.83;100.00;99995.72;20832844;28;20050;-81
2023/01/12 22:55:58;;;;;;;3.45;0.90;;;;;;;9.91;100.00;99999.00;20829576;28;20103;-81
2023/01/12 23:05:59;;;;;;;3.80;1.10;;;;;;;9.88;100.00;99987.78;20824305;28;20054;-82
2023/01/12 23:16:01;;;;;;;3.85;1.08;;;;;;;10.02;100.00;99954.38;20785207;28;20100;-82
2023/01/12 23:26:02;;;;;;;5.53;0.90;;;;;;;10.14;100.00;99964.56;20828592;28;20045;-81
2023/01/12 23:36:03;;;;;;;2.38;0.73;;;;;;;10.32;100.00;99946.78;20816297;28;20046;-80
2023/01/12 23:46:05;;;;;;;3.55;0.80;;;;;;;10.16;100.00;99951.47;20811690;28;20414;-81
2023/01/12 23:56:06;;;;;;;3.47;0.80;;;;;;;10.11;100.00;99955.91;20830567;28;20088;-79
